Terminal Aerodrome Forecast
Issued by NWS Tampa Bay Area, FL

Home | Current Version | Previous Version | Text Only | Print | Product List | Glossary On
Versions: 1 2 3 4 5 6 7 8 9 10 11 12 13 14 15
000
FTUS42 KTBW 161700
TAFSRQ
TAF
KSRQ 161733Z 1618/1718 27008KT P6SM VCTS SCT035CB BKN100 OVC250
     FM170000 28005KT P6SM VCTS SCT035CB BKN100 OVC150
     FM171500 27008KT P6SM VCTS SCT030CB BKN050 OVC100=

USA.gov is the U.S. government's official web portal to all federal, state and local government web resources and services.